sensor_id;sensor_type;location;lat;lon;timestamp;P1;durP1;ratioP1;P2;durP2;ratioP2
10333;SDS011;5212;47.892;16.406;2023-05-07T00:00:02;5.00;;;4.60;;
10333;SDS011;5212;47.892;16.406;2023-05-07T00:02:32;6.53;;;5.03;;
10333;SDS011;5212;47.892;16.406;2023-05-07T00:04:58;5.80;;;5.30;;
10333;SDS011;5212;47.892;16.406;2023-05-07T00:07:24;5.20;;;4.70;;
10333;SDS011;5212;47.892;16.406;2023-05-07T00:09:50;5.20;;;4.80;;
10333;SDS011;5212;47.892;16.406;2023-05-07T00:12:16;6.63;;;6.03;;
10333;SDS011;5212;47.892;16.406;2023-05-07T00:14:42;5.63;;;5.13;;
10333;SDS011;5212;47.892;16.406;2023-05-07T00:17:08;5.93;;;5.43;;
10333;SDS011;5212;47.892;16.406;2023-05-07T00:19:34;6.33;;;5.73;;
10333;SDS011;5212;47.892;16.406;2023-05-07T00:22:00;6.00;;;5.40;;
10333;SDS011;5212;47.892;16.406;2023-05-07T00:24:26;5.80;;;5.30;;
10333;SDS011;5212;47.892;16.406;2023-05-07T00:26:52;5.67;;;5.10;;
10333;SDS011;5212;47.892;16.406;2023-05-07T00:29:19;5.90;;;5.40;;
10333;SDS011;5212;47.892;16.406;2023-05-07T00:31:45;5.73;;;5.23;;
10333;SDS011;5212;47.892;16.406;2023-05-07T00:34:11;7.30;;;6.70;;
10333;SDS011;5212;47.892;16.406;2023-05-07T00:36:37;6.77;;;6.17;;
10333;SDS011;5212;47.892;16.406;2023-05-07T00:39:03;8.30;;;6.30;;
10333;SDS011;5212;47.892;16.406;2023-05-07T00:41:29;6.13;;;5.53;;
10333;SDS011;5212;47.892;16.406;2023-05-07T00:43:56;5.40;;;4.90;;
10333;SDS011;5212;47.892;16.406;2023-05-07T00:46:23;5.87;;;5.30;;
10333;SDS011;5212;47.892;16.406;2023-05-07T00:48:49;4.67;;;4.27;;
10333;SDS011;5212;47.892;16.406;2023-05-07T00:51:16;5.17;;;4.77;;
10333;SDS011;5212;47.892;16.406;2023-05-07T00:53:42;5.20;;;4.70;;
10333;SDS011;5212;47.892;16.406;2023-05-07T00:56:08;5.13;;;4.63;;
10333;SDS011;5212;47.892;16.406;2023-05-07T00:58:35;5.40;;;4.90;;
10333;SDS011;5212;47.892;16.406;2023-05-07T01:01:01;6.23;;;5.37;;
10333;SDS011;5212;47.892;16.406;2023-05-07T01:03:28;8.43;;;6.23;;
10333;SDS011;5212;47.892;16.406;2023-05-07T01:05:54;8.47;;;7.00;;
10333;SDS011;5212;47.892;16.406;2023-05-07T01:08:21;6.30;;;5.30;;
10333;SDS011;5212;47.892;16.406;2023-05-07T01:10:49;6.00;;;5.40;;
10333;SDS011;5212;47.892;16.406;2023-05-07T01:13:17;6.00;;;5.40;;
10333;SDS011;5212;47.892;16.406;2023-05-07T01:15:44;6.00;;;5.40;;
10333;SDS011;5212;47.892;16.406;2023-05-07T01:18:10;7.90;;;7.10;;
10333;SDS011;5212;47.892;16.406;2023-05-07T01:20:37;8.00;;;7.20;;
10333;SDS011;5212;47.892;16.406;2023-05-07T01:23:04;7.50;;;6.60;;
10333;SDS011;5212;47.892;16.406;2023-05-07T01:25:30;6.80;;;6.10;;
10333;SDS011;5212;47.892;16.406;2023-05-07T01:27:56;6.70;;;6.10;;
10333;SDS011;5212;47.892;16.406;2023-05-07T01:30:24;6.30;;;5.70;;
10333;SDS011;5212;47.892;16.406;2023-05-07T01:32:51;5.27;;;4.77;;
10333;SDS011;5212;47.892;16.406;2023-05-07T01:35:19;7.47;;;4.77;;
10333;SDS011;5212;47.892;16.406;2023-05-07T01:37:47;6.33;;;5.37;;
10333;SDS011;5212;47.892;16.406;2023-05-07T01:40:14;6.97;;;6.27;;
10333;SDS011;5212;47.892;16.406;2023-05-07T01:42:40;7.50;;;6.80;;
10333;SDS011;5212;47.892;16.406;2023-05-07T01:45:07;6.47;;;5.90;;
10333;SDS011;5212;47.892;16.406;2023-05-07T01:47:34;5.90;;;5.37;;
10333;SDS011;5212;47.892;16.406;2023-05-07T01:50:00;6.53;;;5.40;;
10333;SDS011;5212;47.892;16.406;2023-05-07T01:52:27;5.67;;;5.10;;
10333;SDS011;5212;47.892;16.406;2023-05-07T01:54:53;5.77;;;5.27;;
10333;SDS011;5212;47.892;16.406;2023-05-07T01:57:20;5.30;;;4.90;;
10333;SDS011;5212;47.892;16.406;2023-05-07T01:59:46;6.03;;;5.47;;
10333;SDS011;5212;47.892;16.406;2023-05-07T02:02:12;5.57;;;5.00;;
10333;SDS011;5212;47.892;16.406;2023-05-07T02:04:38;5.03;;;4.63;;
10333;SDS011;5212;47.892;16.406;2023-05-07T02:07:04;5.00;;;4.60;;
10333;SDS011;5212;47.892;16.406;2023-05-07T02:09:30;5.70;;;5.20;;
10333;SDS011;5212;47.892;16.406;2023-05-07T02:11:56;4.97;;;4.47;;
10333;SDS011;5212;47.892;16.406;2023-05-07T02:14:22;4.87;;;4.43;;
10333;SDS011;5212;47.892;16.406;2023-05-07T02:16:49;5.30;;;4.80;;
10333;SDS011;5212;47.892;16.406;2023-05-07T02:19:15;5.53;;;5.03;;
10333;SDS011;5212;47.892;16.406;2023-05-07T02:21:42;5.07;;;4.67;;
10333;SDS011;5212;47.892;16.406;2023-05-07T02:24:08;5.00;;;4.60;;
10333;SDS011;5212;47.892;16.406;2023-05-07T02:26:33;4.63;;;4.23;;
10333;SDS011;5212;47.892;16.406;2023-05-07T02:28:59;5.50;;;5.00;;
10333;SDS011;5212;47.892;16.406;2023-05-07T02:31:26;4.83;;;4.43;;
10333;SDS011;5212;47.892;16.406;2023-05-07T02:33:52;4.13;;;3.77;;
10333;SDS011;5212;47.892;16.406;2023-05-07T02:36:18;5.23;;;4.83;;
10333;SDS011;5212;47.892;16.406;2023-05-07T02:38:44;5.60;;;5.10;;
10333;SDS011;5212;47.892;16.406;2023-05-07T02:41:10;5.57;;;5.07;;
10333;SDS011;5212;47.892;16.406;2023-05-07T02:43:36;6.30;;;5.70;;
10333;SDS011;5212;47.892;16.406;2023-05-07T02:46:02;5.10;;;4.70;;
10333;SDS011;5212;47.892;16.406;2023-05-07T02:48:29;5.40;;;4.90;;
10333;SDS011;5212;47.892;16.406;2023-05-07T02:50:55;5.10;;;4.67;;
10333;SDS011;5212;47.892;16.406;2023-05-07T02:53:21;5.40;;;4.90;;
10333;SDS011;5212;47.892;16.406;2023-05-07T02:55:47;6.40;;;5.40;;
10333;SDS011;5212;47.892;16.406;2023-05-07T02:58:13;4.97;;;4.57;;
10333;SDS011;5212;47.892;16.406;2023-05-07T03:00:39;6.20;;;5.70;;
10333;SDS011;5212;47.892;16.406;2023-05-07T03:03:05;6.03;;;5.53;;
10333;SDS011;5212;47.892;16.406;2023-05-07T03:05:32;5.40;;;4.90;;
10333;SDS011;5212;47.892;16.406;2023-05-07T03:07:58;6.27;;;5.67;;
10333;SDS011;5212;47.892;16.406;2023-05-07T03:10:24;5.60;;;5.10;;
10333;SDS011;5212;47.892;16.406;2023-05-07T03:12:50;5.13;;;4.67;;
10333;SDS011;5212;47.892;16.406;2023-05-07T03:15:16;5.20;;;4.73;;
10333;SDS011;5212;47.892;16.406;2023-05-07T03:17:42;6.50;;;5.90;;
10333;SDS011;5212;47.892;16.406;2023-05-07T03:20:08;6.60;;;6.07;;
10333;SDS011;5212;47.892;16.406;2023-05-07T03:22:36;6.00;;;5.50;;
10333;SDS011;5212;47.892;16.406;2023-05-07T03:25:02;5.37;;;4.90;;
10333;SDS011;5212;47.892;16.406;2023-05-07T03:27:29;6.47;;;5.87;;
10333;SDS011;5212;47.892;16.406;2023-05-07T03:29:55;6.37;;;5.77;;
10333;SDS011;5212;47.892;16.406;2023-05-07T03:32:21;6.87;;;6.20;;
10333;SDS011;5212;47.892;16.406;2023-05-07T03:34:47;5.90;;;5.40;;
10333;SDS011;5212;47.892;16.406;2023-05-07T03:37:13;6.43;;;5.77;;
10333;SDS011;5212;47.892;16.406;2023-05-07T03:39:40;5.50;;;5.00;;
10333;SDS011;5212;47.892;16.406;2023-05-07T03:42:06;5.67;;;5.17;;
10333;SDS011;5212;47.892;16.406;2023-05-07T03:44:32;5.57;;;5.03;;
10333;SDS011;5212;47.892;16.406;2023-05-07T03:46:58;6.10;;;5.50;;
10333;SDS011;5212;47.892;16.406;2023-05-07T03:49:24;9.67;;;8.87;;
10333;SDS011;5212;47.892;16.406;2023-05-07T03:51:50;7.37;;;6.77;;
10333;SDS011;5212;47.892;16.406;2023-05-07T03:54:16;6.30;;;5.80;;
10333;SDS011;5212;47.892;16.406;2023-05-07T03:56:42;6.40;;;5.80;;
10333;SDS011;5212;47.892;16.406;2023-05-07T03:59:08;6.23;;;5.63;;
10333;SDS011;5212;47.892;16.406;2023-05-07T04:01:34;6.00;;;5.50;;
10333;SDS011;5212;47.892;16.406;2023-05-07T04:04:00;5.53;;;5.03;;
10333;SDS011;5212;47.892;16.406;2023-05-07T04:06:26;7.43;;;6.73;;
10333;SDS011;5212;47.892;16.406;2023-05-07T04:08:53;7.87;;;7.17;;
10333;SDS011;5212;47.892;16.406;2023-05-07T04:11:19;32.00;;;28.90;;
10333;SDS011;5212;47.892;16.406;2023-05-07T04:13:46;23.93;;;21.83;;
10333;SDS011;5212;47.892;16.406;2023-05-07T04:16:12;21.40;;;19.30;;
10333;SDS011;5212;47.892;16.406;2023-05-07T04:18:38;15.80;;;14.30;;
10333;SDS011;5212;47.892;16.406;2023-05-07T04:21:04;14.10;;;12.80;;
10333;SDS011;5212;47.892;16.406;2023-05-07T04:23:30;11.80;;;10.70;;
10333;SDS011;5212;47.892;16.406;2023-05-07T04:25:56;9.80;;;8.90;;
10333;SDS011;5212;47.892;16.406;2023-05-07T04:28:22;8.67;;;7.80;;
10333;SDS011;5212;47.892;16.406;2023-05-07T04:30:49;7.40;;;6.70;;
10333;SDS011;5212;47.892;16.406;2023-05-07T04:33:15;5.87;;;5.37;;
10333;SDS011;5212;47.892;16.406;2023-05-07T04:35:42;6.17;;;5.57;;
10333;SDS011;5212;47.892;16.406;2023-05-07T04:38:08;5.77;;;5.27;;
10333;SDS011;5212;47.892;16.406;2023-05-07T04:40:35;6.20;;;5.70;;
10333;SDS011;5212;47.892;16.406;2023-05-07T04:43:01;5.60;;;5.10;;
10333;SDS011;5212;47.892;16.406;2023-05-07T04:45:27;5.27;;;4.83;;
10333;SDS011;5212;47.892;16.406;2023-05-07T04:47:54;4.90;;;4.50;;
10333;SDS011;5212;47.892;16.406;2023-05-07T04:50:20;4.50;;;4.10;;
10333;SDS011;5212;47.892;16.406;2023-05-07T04:52:48;5.77;;;5.27;;
10333;SDS011;5212;47.892;16.406;2023-05-07T04:55:14;6.40;;;5.80;;
10333;SDS011;5212;47.892;16.406;2023-05-07T04:57:40;6.30;;;5.70;;
10333;SDS011;5212;47.892;16.406;2023-05-07T05:00:07;5.97;;;5.47;;
10333;SDS011;5212;47.892;16.406;2023-05-07T05:02:34;6.20;;;5.70;;
10333;SDS011;5212;47.892;16.406;2023-05-07T05:05:00;5.60;;;5.10;;
10333;SDS011;5212;47.892;16.406;2023-05-07T05:07:27;5.10;;;4.60;;
10333;SDS011;5212;47.892;16.406;2023-05-07T05:09:53;5.20;;;4.70;;
10333;SDS011;5212;47.892;16.406;2023-05-07T05:12:19;5.67;;;5.17;;
10333;SDS011;5212;47.892;16.406;2023-05-07T05:14:45;6.53;;;5.93;;
10333;SDS011;5212;47.892;16.406;2023-05-07T05:17:11;5.60;;;5.13;;
10333;SDS011;5212;47.892;16.406;2023-05-07T05:19:37;6.20;;;5.60;;
10333;SDS011;5212;47.892;16.406;2023-05-07T05:22:04;5.80;;;5.10;;
10333;SDS011;5212;47.892;16.406;2023-05-07T05:24:30;7.77;;;7.07;;
10333;SDS011;5212;47.892;16.406;2023-05-07T05:26:56;21.10;;;18.90;;
10333;SDS011;5212;47.892;16.406;2023-05-07T05:29:22;8.17;;;7.47;;
10333;SDS011;5212;47.892;16.406;2023-05-07T05:31:48;7.10;;;6.50;;
10333;SDS011;5212;47.892;16.406;2023-05-07T05:34:14;6.77;;;6.07;;
10333;SDS011;5212;47.892;16.406;2023-05-07T05:36:40;6.90;;;6.20;;
10333;SDS011;5212;47.892;16.406;2023-05-07T05:39:06;7.07;;;6.40;;
10333;SDS011;5212;47.892;16.406;2023-05-07T05:41:33;7.80;;;6.27;;
10333;SDS011;5212;47.892;16.406;2023-05-07T05:43:59;8.07;;;6.73;;
10333;SDS011;5212;47.892;16.406;2023-05-07T05:46:25;7.27;;;6.57;;
10333;SDS011;5212;47.892;16.406;2023-05-07T05:48:51;7.17;;;6.47;;
10333;SDS011;5212;47.892;16.406;2023-05-07T05:51:17;6.47;;;5.87;;
10333;SDS011;5212;47.892;16.406;2023-05-07T05:53:43;6.57;;;5.23;;
10333;SDS011;5212;47.892;16.406;2023-05-07T05:56:10;7.80;;;6.43;;
10333;SDS011;5212;47.892;16.406;2023-05-07T05:58:36;7.30;;;6.60;;
10333;SDS011;5212;47.892;16.406;2023-05-07T06:01:02;7.13;;;6.37;;
10333;SDS011;5212;47.892;16.406;2023-05-07T06:03:28;7.73;;;6.93;;
10333;SDS011;5212;47.892;16.406;2023-05-07T06:05:54;8.60;;;7.70;;
10333;SDS011;5212;47.892;16.406;2023-05-07T06:08:20;7.83;;;7.03;;
10333;SDS011;5212;47.892;16.406;2023-05-07T06:10:46;8.20;;;7.40;;
10333;SDS011;5212;47.892;16.406;2023-05-07T06:13:13;12.00;;;9.17;;
10333;SDS011;5212;47.892;16.406;2023-05-07T06:15:39;9.17;;;8.27;;
10333;SDS011;5212;47.892;16.406;2023-05-07T06:18:05;11.00;;;9.80;;
10333;SDS011;5212;47.892;16.406;2023-05-07T06:20:31;9.83;;;8.83;;
10333;SDS011;5212;47.892;16.406;2023-05-07T06:22:56;11.23;;;10.10;;
10333;SDS011;5212;47.892;16.406;2023-05-07T06:25:22;10.17;;;9.17;;
10333;SDS011;5212;47.892;16.406;2023-05-07T06:27:48;11.73;;;10.03;;
10333;SDS011;5212;47.892;16.406;2023-05-07T06:30:15;12.30;;;11.10;;
10333;SDS011;5212;47.892;16.406;2023-05-07T06:32:41;16.50;;;14.60;;
10333;SDS011;5212;47.892;16.406;2023-05-07T06:35:07;16.87;;;14.83;;
10333;SDS011;5212;47.892;16.406;2023-05-07T06:37:34;18.60;;;15.47;;
10333;SDS011;5212;47.892;16.406;2023-05-07T06:40:00;17.57;;;15.33;;
10333;SDS011;5212;47.892;16.406;2023-05-07T06:42:26;15.50;;;13.87;;
10333;SDS011;5212;47.892;16.406;2023-05-07T06:44:52;18.30;;;16.40;;
10333;SDS011;5212;47.892;16.406;2023-05-07T06:47:18;19.60;;;17.53;;
10333;SDS011;5212;47.892;16.406;2023-05-07T06:49:44;18.53;;;16.63;;
10333;SDS011;5212;47.892;16.406;2023-05-07T06:52:10;19.17;;;17.07;;
10333;SDS011;5212;47.892;16.406;2023-05-07T06:54:36;19.47;;;17.37;;
10333;SDS011;5212;47.892;16.406;2023-05-07T06:57:02;18.03;;;16.13;;
10333;SDS011;5212;47.892;16.406;2023-05-07T06:59:28;20.83;;;18.20;;
10333;SDS011;5212;47.892;16.406;2023-05-07T07:01:54;20.43;;;18.30;;
10333;SDS011;5212;47.892;16.406;2023-05-07T07:04:21;22.40;;;20.00;;
10333;SDS011;5212;47.892;16.406;2023-05-07T07:06:48;21.07;;;18.97;;
10333;SDS011;5212;47.892;16.406;2023-05-07T07:09:14;18.37;;;16.47;;
10333;SDS011;5212;47.892;16.406;2023-05-07T07:11:39;19.80;;;17.80;;
10333;SDS011;5212;47.892;16.406;2023-05-07T07:14:05;19.90;;;17.80;;
10333;SDS011;5212;47.892;16.406;2023-05-07T07:16:32;20.30;;;18.17;;
10333;SDS011;5212;47.892;16.406;2023-05-07T07:18:57;21.07;;;18.90;;
10333;SDS011;5212;47.892;16.406;2023-05-07T07:21:24;19.67;;;17.57;;
10333;SDS011;5212;47.892;16.406;2023-05-07T07:23:50;19.90;;;17.80;;
10333;SDS011;5212;47.892;16.406;2023-05-07T07:26:17;20.20;;;18.10;;
10333;SDS011;5212;47.892;16.406;2023-05-07T07:28:43;20.27;;;18.20;;
10333;SDS011;5212;47.892;16.406;2023-05-07T07:31:09;20.93;;;18.33;;
10333;SDS011;5212;47.892;16.406;2023-05-07T07:33:35;21.87;;;19.57;;
10333;SDS011;5212;47.892;16.406;2023-05-07T07:36:01;19.20;;;17.20;;
10333;SDS011;5212;47.892;16.406;2023-05-07T07:38:27;19.20;;;17.23;;
10333;SDS011;5212;47.892;16.406;2023-05-07T07:40:53;20.20;;;18.10;;
10333;SDS011;5212;47.892;16.406;2023-05-07T07:43:20;20.57;;;18.37;;
10333;SDS011;5212;47.892;16.406;2023-05-07T07:45:45;20.60;;;18.50;;
10333;SDS011;5212;47.892;16.406;2023-05-07T07:48:11;20.70;;;18.60;;
10333;SDS011;5212;47.892;16.406;2023-05-07T07:50:37;20.77;;;17.60;;
10333;SDS011;5212;47.892;16.406;2023-05-07T07:53:04;18.00;;;16.20;;
10333;SDS011;5212;47.892;16.406;2023-05-07T07:55:30;22.33;;;19.97;;
10333;SDS011;5212;47.892;16.406;2023-05-07T07:57:57;23.60;;;21.10;;
10333;SDS011;5212;47.892;16.406;2023-05-07T08:00:23;24.63;;;22.07;;
10333;SDS011;5212;47.892;16.406;2023-05-07T08:02:49;21.13;;;19.00;;
10333;SDS011;5212;47.892;16.406;2023-05-07T08:05:15;23.87;;;21.17;;
10333;SDS011;5212;47.892;16.406;2023-05-07T08:07:41;23.17;;;20.77;;
10333;SDS011;5212;47.892;16.406;2023-05-07T08:10:07;23.77;;;21.37;;
10333;SDS011;5212;47.892;16.406;2023-05-07T08:12:34;25.13;;;22.63;;
10333;SDS011;5212;47.892;16.406;2023-05-07T08:15:00;21.50;;;19.20;;
10333;SDS011;5212;47.892;16.406;2023-05-07T08:17:26;21.17;;;18.97;;
10333;SDS011;5212;47.892;16.406;2023-05-07T08:19:52;24.40;;;21.80;;
10333;SDS011;5212;47.892;16.406;2023-05-07T08:22:18;23.50;;;21.10;;
10333;SDS011;5212;47.892;16.406;2023-05-07T08:24:44;24.07;;;21.40;;
10333;SDS011;5212;47.892;16.406;2023-05-07T08:27:10;23.07;;;20.67;;
10333;SDS011;5212;47.892;16.406;2023-05-07T08:29:37;24.00;;;21.47;;
10333;SDS011;5212;47.892;16.406;2023-05-07T08:32:03;22.50;;;20.20;;
10333;SDS011;5212;47.892;16.406;2023-05-07T08:34:29;23.80;;;21.40;;
10333;SDS011;5212;47.892;16.406;2023-05-07T08:36:55;22.60;;;20.20;;
10333;SDS011;5212;47.892;16.406;2023-05-07T08:39:21;23.30;;;20.83;;
10333;SDS011;5212;47.892;16.406;2023-05-07T08:41:47;19.93;;;17.77;;
10333;SDS011;5212;47.892;16.406;2023-05-07T08:44:14;20.27;;;18.10;;
10333;SDS011;5212;47.892;16.406;2023-05-07T08:46:41;20.63;;;18.40;;
10333;SDS011;5212;47.892;16.406;2023-05-07T08:49:07;21.70;;;19.40;;
10333;SDS011;5212;47.892;16.406;2023-05-07T08:51:34;20.57;;;18.43;;
10333;SDS011;5212;47.892;16.406;2023-05-07T08:54:01;21.07;;;18.77;;
10333;SDS011;5212;47.892;16.406;2023-05-07T08:56:27;19.00;;;17.03;;
10333;SDS011;5212;47.892;16.406;2023-05-07T08:58:53;19.27;;;17.37;;
10333;SDS011;5212;47.892;16.406;2023-05-07T09:01:21;21.70;;;19.40;;
10333;SDS011;5212;47.892;16.406;2023-05-07T09:03:49;21.23;;;18.93;;
10333;SDS011;5212;47.892;16.406;2023-05-07T09:06:15;18.37;;;16.57;;
10333;SDS011;5212;47.892;16.406;2023-05-07T09:08:44;18.07;;;16.27;;
10333;SDS011;5212;47.892;16.406;2023-05-07T09:11:15;19.50;;;17.47;;
10333;SDS011;5212;47.892;16.406;2023-05-07T09:13:41;18.43;;;16.50;;
10333;SDS011;5212;47.892;16.406;2023-05-07T09:16:11;17.70;;;15.90;;
10333;SDS011;5212;47.892;16.406;2023-05-07T09:18:40;16.33;;;14.70;;
10333;SDS011;5212;47.892;16.406;2023-05-07T09:21:09;18.10;;;16.23;;
10333;SDS011;5212;47.892;16.406;2023-05-07T09:23:36;15.63;;;14.00;;
10333;SDS011;5212;47.892;16.406;2023-05-07T09:26:02;16.90;;;15.17;;
10333;SDS011;5212;47.892;16.406;2023-05-07T09:28:28;15.73;;;14.13;;
10333;SDS011;5212;47.892;16.406;2023-05-07T09:30:54;18.50;;;15.90;;
10333;SDS011;5212;47.892;16.406;2023-05-07T09:33:21;17.70;;;15.90;;
10333;SDS011;5212;47.892;16.406;2023-05-07T09:35:47;17.07;;;15.37;;
10333;SDS011;5212;47.892;16.406;2023-05-07T09:38:17;17.73;;;15.90;;
10333;SDS011;5212;47.892;16.406;2023-05-07T09:40:43;17.00;;;15.30;;
10333;SDS011;5212;47.892;16.406;2023-05-07T09:43:10;17.37;;;15.57;;
10333;SDS011;5212;47.892;16.406;2023-05-07T09:45:36;14.80;;;13.23;;
10333;SDS011;5212;47.892;16.406;2023-05-07T09:48:02;16.47;;;14.77;;
10333;SDS011;5212;47.892;16.406;2023-05-07T09:50:32;13.60;;;12.20;;
10333;SDS011;5212;47.892;16.406;2023-05-07T09:53:01;15.47;;;13.87;;
10333;SDS011;5212;47.892;16.406;2023-05-07T09:55:29;16.33;;;14.53;;
10333;SDS011;5212;47.892;16.406;2023-05-07T09:57:56;14.90;;;13.40;;
10333;SDS011;5212;47.892;16.406;2023-05-07T10:00:23;33.20;;;29.67;;
10333;SDS011;5212;47.892;16.406;2023-05-07T10:02:50;15.53;;;14.03;;
10333;SDS011;5212;47.892;16.406;2023-05-07T10:05:17;16.17;;;14.57;;
10333;SDS011;5212;47.892;16.406;2023-05-07T10:07:43;14.73;;;13.23;;
10333;SDS011;5212;47.892;16.406;2023-05-07T10:10:10;17.20;;;15.50;;
10333;SDS011;5212;47.892;16.406;2023-05-07T10:12:37;15.27;;;13.63;;
10333;SDS011;5212;47.892;16.406;2023-05-07T10:15:05;15.70;;;14.10;;
10333;SDS011;5212;47.892;16.406;2023-05-07T10:17:32;17.13;;;15.33;;
10333;SDS011;5212;47.892;16.406;2023-05-07T10:20:00;14.57;;;13.17;;
10333;SDS011;5212;47.892;16.406;2023-05-07T10:22:26;23.97;;;20.90;;
10333;SDS011;5212;47.892;16.406;2023-05-07T10:24:54;19.23;;;17.27;;
10333;SDS011;5212;47.892;16.406;2023-05-07T10:27:22;19.80;;;17.93;;
10333;SDS011;5212;47.892;16.406;2023-05-07T10:29:51;15.27;;;13.70;;
10333;SDS011;5212;47.892;16.406;2023-05-07T10:35:06;15.20;;;13.63;;
10333;SDS011;5212;47.892;16.406;2023-05-07T10:37:36;14.37;;;12.87;;
10333;SDS011;5212;47.892;16.406;2023-05-07T10:40:02;17.83;;;16.13;;
10333;SDS011;5212;47.892;16.406;2023-05-07T10:42:28;16.60;;;15.00;;
10333;SDS011;5212;47.892;16.406;2023-05-07T10:44:55;16.93;;;15.27;;
10333;SDS011;5212;47.892;16.406;2023-05-07T10:47:21;14.50;;;13.10;;
10333;SDS011;5212;47.892;16.406;2023-05-07T10:55:51;15.00;;;13.47;;
10333;SDS011;5212;47.892;16.406;2023-05-07T10:58:23;12.47;;;11.10;;
10333;SDS011;5212;47.892;16.406;2023-05-07T11:00:55;13.43;;;12.13;;
10333;SDS011;5212;47.892;16.406;2023-05-07T11:03:22;12.90;;;11.70;;
10333;SDS011;5212;47.892;16.406;2023-05-07T11:05:48;12.17;;;10.93;;
10333;SDS011;5212;47.892;16.406;2023-05-07T11:11:18;12.00;;;10.80;;
10333;SDS011;5212;47.892;16.406;2023-05-07T11:13:45;13.93;;;12.57;;
10333;SDS011;5212;47.892;16.406;2023-05-07T11:16:18;14.70;;;13.17;;
10333;SDS011;5212;47.892;16.406;2023-05-07T11:18:47;12.97;;;11.57;;
10333;SDS011;5212;47.892;16.406;2023-05-07T11:21:19;13.17;;;11.83;;
10333;SDS011;5212;47.892;16.406;2023-05-07T11:23:58;12.87;;;11.67;;
10333;SDS011;5212;47.892;16.406;2023-05-07T11:26:24;11.67;;;10.57;;
10333;SDS011;5212;47.892;16.406;2023-05-07T11:28:51;13.27;;;11.97;;
10333;SDS011;5212;47.892;16.406;2023-05-07T11:31:20;10.53;;;9.33;;
10333;SDS011;5212;47.892;16.406;2023-05-07T11:33:47;12.97;;;11.70;;
10333;SDS011;5212;47.892;16.406;2023-05-07T11:36:13;10.20;;;9.30;;
10333;SDS011;5212;47.892;16.406;2023-05-07T11:38:39;12.83;;;11.53;;
10333;SDS011;5212;47.892;16.406;2023-05-07T11:41:06;11.33;;;10.23;;
10333;SDS011;5212;47.892;16.406;2023-05-07T11:43:33;14.20;;;12.07;;
10333;SDS011;5212;47.892;16.406;2023-05-07T11:46:08;13.13;;;11.90;;
10333;SDS011;5212;47.892;16.406;2023-05-07T11:48:35;11.77;;;10.63;;
10333;SDS011;5212;47.892;16.406;2023-05-07T11:51:02;11.00;;;10.00;;
10333;SDS011;5212;47.892;16.406;2023-05-07T11:53:35;13.30;;;12.00;;
10333;SDS011;5212;47.892;16.406;2023-05-07T11:56:05;13.93;;;11.13;;
10333;SDS011;5212;47.892;16.406;2023-05-07T11:58:32;11.90;;;10.73;;
10333;SDS011;5212;47.892;16.406;2023-05-07T12:00:58;12.10;;;10.90;;
10333;SDS011;5212;47.892;16.406;2023-05-07T12:03:24;12.17;;;10.97;;
10333;SDS011;5212;47.892;16.406;2023-05-07T12:05:51;13.70;;;12.30;;
10333;SDS011;5212;47.892;16.406;2023-05-07T12:08:17;12.90;;;11.60;;
10333;SDS011;5212;47.892;16.406;2023-05-07T12:10:43;10.53;;;9.47;;
10333;SDS011;5212;47.892;16.406;2023-05-07T12:13:16;10.63;;;9.47;;
10333;SDS011;5212;47.892;16.406;2023-05-07T12:15:42;12.77;;;10.20;;
10333;SDS011;5212;47.892;16.406;2023-05-07T12:18:08;12.30;;;11.10;;
10333;SDS011;5212;47.892;16.406;2023-05-07T12:20:35;10.33;;;9.23;;
10333;SDS011;5212;47.892;16.406;2023-05-07T12:23:02;11.47;;;10.37;;
10333;SDS011;5212;47.892;16.406;2023-05-07T12:25:29;10.57;;;9.53;;
10333;SDS011;5212;47.892;16.406;2023-05-07T12:27:56;10.97;;;9.97;;
10333;SDS011;5212;47.892;16.406;2023-05-07T12:30:23;11.57;;;10.47;;
10333;SDS011;5212;47.892;16.406;2023-05-07T12:32:52;12.53;;;11.23;;
10333;SDS011;5212;47.892;16.406;2023-05-07T12:35:25;10.57;;;9.47;;
10333;SDS011;5212;47.892;16.406;2023-05-07T12:37:54;10.07;;;9.07;;
10333;SDS011;5212;47.892;16.406;2023-05-07T12:40:21;11.97;;;10.80;;
10333;SDS011;5212;47.892;16.406;2023-05-07T12:42:47;10.37;;;9.37;;
10333;SDS011;5212;47.892;16.406;2023-05-07T12:45:19;12.63;;;11.37;;
10333;SDS011;5212;47.892;16.406;2023-05-07T12:47:45;11.50;;;10.13;;
10333;SDS011;5212;47.892;16.406;2023-05-07T12:50:11;11.33;;;10.23;;
10333;SDS011;5212;47.892;16.406;2023-05-07T12:52:38;9.30;;;8.40;;
10333;SDS011;5212;47.892;16.406;2023-05-07T12:55:04;10.40;;;9.30;;
10333;SDS011;5212;47.892;16.406;2023-05-07T12:57:31;9.50;;;8.60;;
10333;SDS011;5212;47.892;16.406;2023-05-07T13:00:03;9.00;;;8.20;;
10333;SDS011;5212;47.892;16.406;2023-05-07T13:02:32;9.10;;;8.20;;
10333;SDS011;5212;47.892;16.406;2023-05-07T13:04:58;9.07;;;8.20;;
10333;SDS011;5212;47.892;16.406;2023-05-07T13:07:24;8.30;;;7.50;;
10333;SDS011;5212;47.892;16.406;2023-05-07T13:09:50;9.40;;;8.50;;
10333;SDS011;5212;47.892;16.406;2023-05-07T13:12:16;8.20;;;7.40;;
10333;SDS011;5212;47.892;16.406;2023-05-07T13:14:43;10.60;;;9.60;;
10333;SDS011;5212;47.892;16.406;2023-05-07T13:17:09;9.00;;;8.10;;
10333;SDS011;5212;47.892;16.406;2023-05-07T13:19:35;7.97;;;7.17;;
10333;SDS011;5212;47.892;16.406;2023-05-07T13:22:02;8.70;;;7.90;;
10333;SDS011;5212;47.892;16.406;2023-05-07T13:24:28;9.40;;;8.40;;
10333;SDS011;5212;47.892;16.406;2023-05-07T13:26:54;9.23;;;8.33;;
10333;SDS011;5212;47.892;16.406;2023-05-07T13:29:20;8.53;;;7.73;;
10333;SDS011;5212;47.892;16.406;2023-05-07T13:31:51;8.10;;;7.27;;
10333;SDS011;5212;47.892;16.406;2023-05-07T13:34:17;8.37;;;7.43;;
10333;SDS011;5212;47.892;16.406;2023-05-07T13:36:42;7.13;;;6.53;;
10333;SDS011;5212;47.892;16.406;2023-05-07T13:39:09;8.23;;;7.50;;
10333;SDS011;5212;47.892;16.406;2023-05-07T13:41:34;7.80;;;7.00;;
10333;SDS011;5212;47.892;16.406;2023-05-07T13:44:00;8.30;;;7.40;;
10333;SDS011;5212;47.892;16.406;2023-05-07T13:46:26;8.70;;;7.80;;
10333;SDS011;5212;47.892;16.406;2023-05-07T13:48:53;7.77;;;7.03;;
10333;SDS011;5212;47.892;16.406;2023-05-07T13:51:19;8.67;;;7.77;;
10333;SDS011;5212;47.892;16.406;2023-05-07T13:53:45;7.53;;;6.77;;
10333;SDS011;5212;47.892;16.406;2023-05-07T13:56:11;8.57;;;7.77;;
10333;SDS011;5212;47.892;16.406;2023-05-07T13:58:37;7.03;;;6.43;;
10333;SDS011;5212;47.892;16.406;2023-05-07T14:01:03;6.93;;;6.33;;
10333;SDS011;5212;47.892;16.406;2023-05-07T14:03:30;7.60;;;6.90;;
10333;SDS011;5212;47.892;16.406;2023-05-07T14:05:57;10.27;;;9.27;;
10333;SDS011;5212;47.892;16.406;2023-05-07T14:08:24;7.83;;;7.07;;
10333;SDS011;5212;47.892;16.406;2023-05-07T14:10:50;8.13;;;7.43;;
10333;SDS011;5212;47.892;16.406;2023-05-07T14:13:16;8.17;;;7.37;;
10333;SDS011;5212;47.892;16.406;2023-05-07T14:15:42;7.93;;;7.13;;
10333;SDS011;5212;47.892;16.406;2023-05-07T14:18:11;7.07;;;6.47;;
10333;SDS011;5212;47.892;16.406;2023-05-07T14:20:37;8.50;;;7.60;;
10333;SDS011;5212;47.892;16.406;2023-05-07T14:23:04;7.47;;;5.97;;
10333;SDS011;5212;47.892;16.406;2023-05-07T14:25:30;8.53;;;7.73;;
10333;SDS011;5212;47.892;16.406;2023-05-07T14:27:56;7.70;;;7.00;;
10333;SDS011;5212;47.892;16.406;2023-05-07T14:30:22;7.10;;;6.50;;
10333;SDS011;5212;47.892;16.406;2023-05-07T14:32:49;6.90;;;6.30;;
10333;SDS011;5212;47.892;16.406;2023-05-07T14:35:15;7.37;;;6.53;;
10333;SDS011;5212;47.892;16.406;2023-05-07T14:37:42;6.20;;;5.60;;
10333;SDS011;5212;47.892;16.406;2023-05-07T14:40:09;7.67;;;6.90;;
10333;SDS011;5212;47.892;16.406;2023-05-07T14:42:36;6.27;;;5.60;;